sensor_id;sensor_type;location;lat;lon;timestamp;P1;durP1;ratioP1;P2;durP2;ratioP2
19193;SDS011;9729;52.296;13.260;2022-11-15T00:00:55;62.47;;;30.23;;
19193;SDS011;9729;52.296;13.260;2022-11-15T00:03:25;56.30;;;28.73;;
19193;SDS011;9729;52.296;13.260;2022-11-15T00:05:52;61.53;;;30.77;;
19193;SDS011;9729;52.296;13.260;2022-11-15T00:08:20;60.60;;;31.17;;
19193;SDS011;9729;52.296;13.260;2022-11-15T00:10:53;54.67;;;26.50;;
19193;SDS011;9729;52.296;13.260;2022-11-15T00:13:20;59.03;;;29.63;;
19193;SDS011;9729;52.296;13.260;2022-11-15T00:15:48;58.40;;;29.77;;
19193;SDS011;9729;52.296;13.260;2022-11-15T00:18:24;52.30;;;28.90;;
19193;SDS011;9729;52.296;13.260;2022-11-15T00:20:50;56.13;;;29.13;;
19193;SDS011;9729;52.296;13.260;2022-11-15T00:23:17;54.90;;;28.53;;
19193;SDS011;9729;52.296;13.260;2022-11-15T00:25:44;52.60;;;28.37;;
19193;SDS011;9729;52.296;13.260;2022-11-15T00:28:11;58.63;;;29.40;;
19193;SDS011;9729;52.296;13.260;2022-11-15T00:30:37;60.23;;;29.10;;
19193;SDS011;9729;52.296;13.260;2022-11-15T00:33:04;54.47;;;28.70;;
19193;SDS011;9729;52.296;13.260;2022-11-15T00:35:31;50.50;;;26.37;;
19193;SDS011;9729;52.296;13.260;2022-11-15T00:37:58;53.23;;;27.60;;
19193;SDS011;9729;52.296;13.260;2022-11-15T00:40:24;51.57;;;26.97;;
19193;SDS011;9729;52.296;13.260;2022-11-15T00:42:55;52.77;;;27.50;;
19193;SDS011;9729;52.296;13.260;2022-11-15T00:45:21;47.20;;;25.77;;
19193;SDS011;9729;52.296;13.260;2022-11-15T00:47:48;48.50;;;26.50;;
19193;SDS011;9729;52.296;13.260;2022-11-15T00:50:14;48.47;;;25.30;;
19193;SDS011;9729;52.296;13.260;2022-11-15T00:52:41;45.27;;;25.83;;
19193;SDS011;9729;52.296;13.260;2022-11-15T00:55:08;49.63;;;25.80;;
19193;SDS011;9729;52.296;13.260;2022-11-15T00:57:35;47.43;;;24.87;;
19193;SDS011;9729;52.296;13.260;2022-11-15T01:00:03;49.93;;;24.33;;
19193;SDS011;9729;52.296;13.260;2022-11-15T01:02:31;47.27;;;22.93;;
19193;SDS011;9729;52.296;13.260;2022-11-15T01:04:58;47.43;;;24.93;;
19193;SDS011;9729;52.296;13.260;2022-11-15T01:07:24;47.53;;;25.50;;
19193;SDS011;9729;52.296;13.260;2022-11-15T01:09:51;48.07;;;24.83;;
19193;SDS011;9729;52.296;13.260;2022-11-15T01:12:18;47.93;;;25.50;;
19193;SDS011;9729;52.296;13.260;2022-11-15T01:14:45;48.83;;;25.37;;
19193;SDS011;9729;52.296;13.260;2022-11-15T01:17:12;46.67;;;24.03;;
19193;SDS011;9729;52.296;13.260;2022-11-15T01:19:39;51.47;;;26.13;;
19193;SDS011;9729;52.296;13.260;2022-11-15T01:22:05;49.37;;;25.10;;
19193;SDS011;9729;52.296;13.260;2022-11-15T01:24:32;48.40;;;25.20;;
19193;SDS011;9729;52.296;13.260;2022-11-15T01:26:58;48.27;;;25.50;;
19193;SDS011;9729;52.296;13.260;2022-11-15T01:29:24;49.63;;;26.93;;
19193;SDS011;9729;52.296;13.260;2022-11-15T01:31:52;49.50;;;25.43;;
19193;SDS011;9729;52.296;13.260;2022-11-15T01:34:20;53.80;;;26.00;;
19193;SDS011;9729;52.296;13.260;2022-11-15T01:36:47;52.07;;;27.07;;
19193;SDS011;9729;52.296;13.260;2022-11-15T01:39:13;47.83;;;25.67;;
19193;SDS011;9729;52.296;13.260;2022-11-15T01:41:40;49.20;;;24.80;;
19193;SDS011;9729;52.296;13.260;2022-11-15T01:47:05;51.43;;;26.27;;
19193;SDS011;9729;52.296;13.260;2022-11-15T01:49:35;52.53;;;26.53;;
19193;SDS011;9729;52.296;13.260;2022-11-15T01:52:05;54.03;;;27.03;;
19193;SDS011;9729;52.296;13.260;2022-11-15T01:54:33;47.07;;;24.97;;
19193;SDS011;9729;52.296;13.260;2022-11-15T01:57:01;48.43;;;26.07;;
19193;SDS011;9729;52.296;13.260;2022-11-15T01:59:31;50.73;;;26.20;;
19193;SDS011;9729;52.296;13.260;2022-11-15T02:01:58;49.30;;;25.30;;
19193;SDS011;9729;52.296;13.260;2022-11-15T02:04:24;48.37;;;25.80;;
19193;SDS011;9729;52.296;13.260;2022-11-15T02:06:53;54.03;;;27.67;;
19193;SDS011;9729;52.296;13.260;2022-11-15T02:09:20;48.67;;;24.60;;
19193;SDS011;9729;52.296;13.260;2022-11-15T02:11:46;52.67;;;25.13;;
19193;SDS011;9729;52.296;13.260;2022-11-15T02:14:13;49.63;;;25.37;;
19193;SDS011;9729;52.296;13.260;2022-11-15T02:16:41;51.43;;;26.03;;
19193;SDS011;9729;52.296;13.260;2022-11-15T02:19:24;43.00;;;22.47;;
19193;SDS011;9729;52.296;13.260;2022-11-15T02:22:05;44.80;;;24.53;;
19193;SDS011;9729;52.296;13.260;2022-11-15T02:25:00;48.67;;;25.93;;
19193;SDS011;9729;52.296;13.260;2022-11-15T02:27:35;49.53;;;25.83;;
19193;SDS011;9729;52.296;13.260;2022-11-15T02:30:18;50.60;;;26.13;;
19193;SDS011;9729;52.296;13.260;2022-11-15T02:32:47;51.60;;;25.40;;
19193;SDS011;9729;52.296;13.260;2022-11-15T02:35:19;53.23;;;25.73;;
19193;SDS011;9729;52.296;13.260;2022-11-15T02:37:51;53.40;;;25.67;;
19193;SDS011;9729;52.296;13.260;2022-11-15T02:40:23;48.57;;;24.83;;
19193;SDS011;9729;52.296;13.260;2022-11-15T02:42:54;55.47;;;26.90;;
19193;SDS011;9729;52.296;13.260;2022-11-15T02:45:41;52.30;;;26.27;;
19193;SDS011;9729;52.296;13.260;2022-11-15T02:48:11;50.83;;;26.40;;
19193;SDS011;9729;52.296;13.260;2022-11-15T02:50:38;60.33;;;29.60;;
19193;SDS011;9729;52.296;13.260;2022-11-15T02:53:05;58.97;;;31.07;;
19193;SDS011;9729;52.296;13.260;2022-11-15T02:55:34;75.67;;;34.07;;
19193;SDS011;9729;52.296;13.260;2022-11-15T02:58:10;88.17;;;37.23;;
19193;SDS011;9729;52.296;13.260;2022-11-15T03:00:49;87.80;;;36.33;;
19193;SDS011;9729;52.296;13.260;2022-11-15T03:03:26;86.77;;;39.20;;
19193;SDS011;9729;52.296;13.260;2022-11-15T03:06:00;89.93;;;38.70;;
19193;SDS011;9729;52.296;13.260;2022-11-15T03:08:32;85.10;;;36.40;;
19193;SDS011;9729;52.296;13.260;2022-11-15T03:11:03;80.63;;;35.57;;
19193;SDS011;9729;52.296;13.260;2022-11-15T03:13:33;74.53;;;32.57;;
19193;SDS011;9729;52.296;13.260;2022-11-15T03:16:06;71.90;;;32.00;;
19193;SDS011;9729;52.296;13.260;2022-11-15T03:18:37;68.50;;;33.23;;
19193;SDS011;9729;52.296;13.260;2022-11-15T03:21:05;65.87;;;32.13;;
19193;SDS011;9729;52.296;13.260;2022-11-15T03:23:33;64.40;;;30.50;;
19193;SDS011;9729;52.296;13.260;2022-11-15T03:26:01;58.00;;;29.50;;
19193;SDS011;9729;52.296;13.260;2022-11-15T03:28:29;60.20;;;29.27;;
19193;SDS011;9729;52.296;13.260;2022-11-15T03:30:58;66.30;;;31.60;;
19193;SDS011;9729;52.296;13.260;2022-11-15T03:33:49;67.27;;;29.77;;
19193;SDS011;9729;52.296;13.260;2022-11-15T03:36:16;60.90;;;29.50;;
19193;SDS011;9729;52.296;13.260;2022-11-15T03:38:43;55.57;;;28.33;;
19193;SDS011;9729;52.296;13.260;2022-11-15T03:41:13;60.07;;;28.10;;
19193;SDS011;9729;52.296;13.260;2022-11-15T03:43:43;59.23;;;29.33;;
19193;SDS011;9729;52.296;13.260;2022-11-15T03:46:13;59.93;;;28.53;;
19193;SDS011;9729;52.296;13.260;2022-11-15T03:48:41;62.50;;;29.53;;
19193;SDS011;9729;52.296;13.260;2022-11-15T03:51:12;58.13;;;29.03;;
19193;SDS011;9729;52.296;13.260;2022-11-15T03:53:39;61.83;;;28.00;;
19193;SDS011;9729;52.296;13.260;2022-11-15T03:56:07;62.53;;;29.37;;
19193;SDS011;9729;52.296;13.260;2022-11-15T03:58:33;54.00;;;28.87;;
19193;SDS011;9729;52.296;13.260;2022-11-15T04:00:59;60.60;;;28.60;;
19193;SDS011;9729;52.296;13.260;2022-11-15T04:03:26;54.53;;;27.27;;
19193;SDS011;9729;52.296;13.260;2022-11-15T04:05:53;57.27;;;29.00;;
19193;SDS011;9729;52.296;13.260;2022-11-15T04:08:21;59.90;;;30.33;;
19193;SDS011;9729;52.296;13.260;2022-11-15T04:10:48;56.60;;;29.63;;
19193;SDS011;9729;52.296;13.260;2022-11-15T04:13:14;58.77;;;28.60;;
19193;SDS011;9729;52.296;13.260;2022-11-15T04:15:41;56.40;;;28.23;;
19193;SDS011;9729;52.296;13.260;2022-11-15T04:18:07;59.07;;;29.13;;
19193;SDS011;9729;52.296;13.260;2022-11-15T04:20:34;62.57;;;28.60;;
19193;SDS011;9729;52.296;13.260;2022-11-15T04:23:28;56.03;;;28.33;;
19193;SDS011;9729;52.296;13.260;2022-11-15T04:26:26;57.10;;;28.30;;
19193;SDS011;9729;52.296;13.260;2022-11-15T04:28:53;65.00;;;29.80;;
19193;SDS011;9729;52.296;13.260;2022-11-15T04:31:37;58.03;;;30.63;;
19193;SDS011;9729;52.296;13.260;2022-11-15T04:34:03;61.27;;;27.47;;
19193;SDS011;9729;52.296;13.260;2022-11-15T04:36:30;56.13;;;26.83;;
19193;SDS011;9729;52.296;13.260;2022-11-15T04:39:15;53.73;;;27.10;;
19193;SDS011;9729;52.296;13.260;2022-11-15T04:41:41;54.73;;;28.27;;
19193;SDS011;9729;52.296;13.260;2022-11-15T04:44:08;49.97;;;25.97;;
19193;SDS011;9729;52.296;13.260;2022-11-15T04:46:34;55.73;;;26.97;;
19193;SDS011;9729;52.296;13.260;2022-11-15T04:49:00;46.80;;;25.10;;
19193;SDS011;9729;52.296;13.260;2022-11-15T04:51:27;51.23;;;25.70;;
19193;SDS011;9729;52.296;13.260;2022-11-15T04:53:54;51.33;;;27.00;;
19193;SDS011;9729;52.296;13.260;2022-11-15T04:56:21;50.27;;;26.40;;
19193;SDS011;9729;52.296;13.260;2022-11-15T04:58:48;47.43;;;23.93;;
19193;SDS011;9729;52.296;13.260;2022-11-15T05:01:14;52.43;;;26.70;;
19193;SDS011;9729;52.296;13.260;2022-11-15T05:03:41;44.30;;;24.23;;
19193;SDS011;9729;52.296;13.260;2022-11-15T05:06:28;46.10;;;24.73;;
19193;SDS011;9729;52.296;13.260;2022-11-15T05:08:54;49.13;;;25.27;;
19193;SDS011;9729;52.296;13.260;2022-11-15T05:11:22;54.33;;;26.47;;
19193;SDS011;9729;52.296;13.260;2022-11-15T05:13:49;48.10;;;25.07;;
19193;SDS011;9729;52.296;13.260;2022-11-15T05:16:16;46.00;;;24.03;;
19193;SDS011;9729;52.296;13.260;2022-11-15T05:18:42;51.90;;;25.30;;
19193;SDS011;9729;52.296;13.260;2022-11-15T05:21:09;48.00;;;23.97;;
19193;SDS011;9729;52.296;13.260;2022-11-15T05:23:36;51.97;;;25.57;;
19193;SDS011;9729;52.296;13.260;2022-11-15T05:26:04;49.37;;;24.97;;
19193;SDS011;9729;52.296;13.260;2022-11-15T05:28:34;51.63;;;24.20;;
19193;SDS011;9729;52.296;13.260;2022-11-15T05:31:01;49.80;;;25.67;;
19193;SDS011;9729;52.296;13.260;2022-11-15T05:33:28;47.63;;;24.57;;
19193;SDS011;9729;52.296;13.260;2022-11-15T05:35:56;48.43;;;25.27;;
19193;SDS011;9729;52.296;13.260;2022-11-15T05:38:25;53.70;;;27.60;;
19193;SDS011;9729;52.296;13.260;2022-11-15T05:40:52;51.93;;;26.00;;
19193;SDS011;9729;52.296;13.260;2022-11-15T05:43:18;45.43;;;24.20;;
19193;SDS011;9729;52.296;13.260;2022-11-15T05:45:46;47.47;;;25.27;;
19193;SDS011;9729;52.296;13.260;2022-11-15T05:48:12;49.73;;;26.17;;
19193;SDS011;9729;52.296;13.260;2022-11-15T05:50:41;60.60;;;27.30;;
19193;SDS011;9729;52.296;13.260;2022-11-15T05:53:12;50.83;;;26.10;;
19193;SDS011;9729;52.296;13.260;2022-11-15T05:55:39;55.37;;;28.63;;
19193;SDS011;9729;52.296;13.260;2022-11-15T05:58:05;63.30;;;29.90;;
19193;SDS011;9729;52.296;13.260;2022-11-15T06:00:32;61.40;;;30.03;;
19193;SDS011;9729;52.296;13.260;2022-11-15T06:03:00;56.93;;;28.87;;
19193;SDS011;9729;52.296;13.260;2022-11-15T06:05:26;68.30;;;30.37;;
19193;SDS011;9729;52.296;13.260;2022-11-15T06:07:52;68.63;;;28.53;;
19193;SDS011;9729;52.296;13.260;2022-11-15T06:10:23;52.37;;;27.70;;
19193;SDS011;9729;52.296;13.260;2022-11-15T06:12:55;52.17;;;26.80;;
19193;SDS011;9729;52.296;13.260;2022-11-15T06:15:22;51.03;;;24.87;;
19193;SDS011;9729;52.296;13.260;2022-11-15T06:17:49;51.80;;;25.93;;
19193;SDS011;9729;52.296;13.260;2022-11-15T06:20:18;63.30;;;29.73;;
19193;SDS011;9729;52.296;13.260;2022-11-15T06:22:44;59.23;;;26.27;;
19193;SDS011;9729;52.296;13.260;2022-11-15T06:25:10;50.33;;;26.60;;
19193;SDS011;9729;52.296;13.260;2022-11-15T06:27:37;55.43;;;27.80;;
19193;SDS011;9729;52.296;13.260;2022-11-15T06:30:03;54.40;;;27.57;;
19193;SDS011;9729;52.296;13.260;2022-11-15T06:32:31;49.53;;;24.77;;
19193;SDS011;9729;52.296;13.260;2022-11-15T06:34:57;55.90;;;26.97;;
19193;SDS011;9729;52.296;13.260;2022-11-15T06:37:25;56.20;;;27.27;;
19193;SDS011;9729;52.296;13.260;2022-11-15T06:39:52;56.70;;;27.77;;
19193;SDS011;9729;52.296;13.260;2022-11-15T06:42:19;55.20;;;26.90;;
19193;SDS011;9729;52.296;13.260;2022-11-15T06:44:45;55.00;;;26.60;;
19193;SDS011;9729;52.296;13.260;2022-11-15T06:47:11;50.30;;;26.13;;
19193;SDS011;9729;52.296;13.260;2022-11-15T06:49:38;56.60;;;26.37;;
19193;SDS011;9729;52.296;13.260;2022-11-15T06:52:04;52.57;;;26.87;;
19193;SDS011;9729;52.296;13.260;2022-11-15T06:54:32;51.43;;;26.63;;
19193;SDS011;9729;52.296;13.260;2022-11-15T06:56:58;55.17;;;28.33;;
19193;SDS011;9729;52.296;13.260;2022-11-15T06:59:25;53.87;;;25.77;;
19193;SDS011;9729;52.296;13.260;2022-11-15T07:01:51;61.97;;;29.93;;
19193;SDS011;9729;52.296;13.260;2022-11-15T07:04:18;59.40;;;27.40;;
19193;SDS011;9729;52.296;13.260;2022-11-15T07:06:45;62.43;;;28.60;;
19193;SDS011;9729;52.296;13.260;2022-11-15T07:09:12;54.40;;;27.93;;
19193;SDS011;9729;52.296;13.260;2022-11-15T07:11:42;50.43;;;27.37;;
19193;SDS011;9729;52.296;13.260;2022-11-15T07:14:08;52.97;;;28.50;;
19193;SDS011;9729;52.296;13.260;2022-11-15T07:16:35;59.50;;;27.37;;
19193;SDS011;9729;52.296;13.260;2022-11-15T07:19:02;47.83;;;27.47;;
19193;SDS011;9729;52.296;13.260;2022-11-15T07:21:28;60.17;;;29.10;;
19193;SDS011;9729;52.296;13.260;2022-11-15T07:23:55;52.87;;;27.37;;
19193;SDS011;9729;52.296;13.260;2022-11-15T07:26:21;55.53;;;27.33;;
19193;SDS011;9729;52.296;13.260;2022-11-15T07:28:49;58.63;;;26.10;;
19193;SDS011;9729;52.296;13.260;2022-11-15T07:31:15;55.60;;;27.57;;
19193;SDS011;9729;52.296;13.260;2022-11-15T07:33:43;56.90;;;27.53;;
19193;SDS011;9729;52.296;13.260;2022-11-15T07:36:09;57.07;;;29.03;;
19193;SDS011;9729;52.296;13.260;2022-11-15T07:38:36;55.40;;;28.77;;
19193;SDS011;9729;52.296;13.260;2022-11-15T07:41:02;56.13;;;28.23;;
19193;SDS011;9729;52.296;13.260;2022-11-15T07:43:30;52.47;;;30.10;;
19193;SDS011;9729;52.296;13.260;2022-11-15T07:46:05;51.43;;;29.60;;
19193;SDS011;9729;52.296;13.260;2022-11-15T07:48:35;58.17;;;28.87;;
19193;SDS011;9729;52.296;13.260;2022-11-15T07:51:02;57.90;;;30.50;;
19193;SDS011;9729;52.296;13.260;2022-11-15T07:53:29;53.97;;;28.47;;
19193;SDS011;9729;52.296;13.260;2022-11-15T07:55:55;57.93;;;30.50;;
19193;SDS011;9729;52.296;13.260;2022-11-15T07:58:21;62.77;;;30.97;;
19193;SDS011;9729;52.296;13.260;2022-11-15T08:00:48;57.27;;;30.73;;
19193;SDS011;9729;52.296;13.260;2022-11-15T08:03:16;56.27;;;29.60;;
19193;SDS011;9729;52.296;13.260;2022-11-15T08:05:42;59.57;;;30.33;;
19193;SDS011;9729;52.296;13.260;2022-11-15T08:08:10;59.60;;;31.13;;
19193;SDS011;9729;52.296;13.260;2022-11-15T08:10:38;55.33;;;30.90;;
19193;SDS011;9729;52.296;13.260;2022-11-15T08:13:04;66.57;;;33.07;;
19193;SDS011;9729;52.296;13.260;2022-11-15T08:15:32;59.57;;;31.53;;
19193;SDS011;9729;52.296;13.260;2022-11-15T08:18:00;63.60;;;33.50;;
19193;SDS011;9729;52.296;13.260;2022-11-15T08:20:29;66.97;;;32.67;;
19193;SDS011;9729;52.296;13.260;2022-11-15T08:22:56;67.80;;;32.20;;
19193;SDS011;9729;52.296;13.260;2022-11-15T08:25:24;72.23;;;31.67;;
19193;SDS011;9729;52.296;13.260;2022-11-15T08:27:52;105.10;;;47.50;;
19193;SDS011;9729;52.296;13.260;2022-11-15T08:30:19;72.87;;;36.43;;
19193;SDS011;9729;52.296;13.260;2022-11-15T08:32:45;69.37;;;34.03;;
19193;SDS011;9729;52.296;13.260;2022-11-15T08:35:14;68.57;;;32.93;;
19193;SDS011;9729;52.296;13.260;2022-11-15T08:37:42;72.43;;;33.63;;
19193;SDS011;9729;52.296;13.260;2022-11-15T08:40:08;70.27;;;34.07;;
19193;SDS011;9729;52.296;13.260;2022-11-15T08:42:35;67.53;;;34.13;;
19193;SDS011;9729;52.296;13.260;2022-11-15T08:45:02;62.97;;;35.00;;
19193;SDS011;9729;52.296;13.260;2022-11-15T08:47:29;68.30;;;33.47;;
19193;SDS011;9729;52.296;13.260;2022-11-15T08:49:56;64.80;;;34.73;;
19193;SDS011;9729;52.296;13.260;2022-11-15T08:52:22;65.70;;;34.87;;
19193;SDS011;9729;52.296;13.260;2022-11-15T08:54:50;67.67;;;32.93;;
19193;SDS011;9729;52.296;13.260;2022-11-15T08:57:18;68.83;;;33.03;;
19193;SDS011;9729;52.296;13.260;2022-11-15T08:59:44;76.20;;;36.43;;
19193;SDS011;9729;52.296;13.260;2022-11-15T09:02:11;66.60;;;34.70;;
19193;SDS011;9729;52.296;13.260;2022-11-15T09:04:39;65.40;;;34.43;;
19193;SDS011;9729;52.296;13.260;2022-11-15T09:07:06;65.87;;;34.27;;
19193;SDS011;9729;52.296;13.260;2022-11-15T09:09:39;64.83;;;32.67;;
19193;SDS011;9729;52.296;13.260;2022-11-15T09:12:07;60.50;;;30.60;;
19193;SDS011;9729;52.296;13.260;2022-11-15T09:14:35;52.13;;;28.53;;
19193;SDS011;9729;52.296;13.260;2022-11-15T09:17:01;54.67;;;27.93;;
19193;SDS011;9729;52.296;13.260;2022-11-15T09:19:28;52.87;;;27.30;;
19193;SDS011;9729;52.296;13.260;2022-11-15T09:21:54;52.23;;;28.10;;
19193;SDS011;9729;52.296;13.260;2022-11-15T09:24:20;44.53;;;25.23;;
19193;SDS011;9729;52.296;13.260;2022-11-15T09:26:49;45.20;;;25.13;;
19193;SDS011;9729;52.296;13.260;2022-11-15T09:29:17;39.87;;;23.37;;
19193;SDS011;9729;52.296;13.260;2022-11-15T09:31:43;45.10;;;24.00;;
19193;SDS011;9729;52.296;13.260;2022-11-15T09:34:11;41.67;;;22.23;;
19193;SDS011;9729;52.296;13.260;2022-11-15T09:36:38;38.50;;;20.50;;
19193;SDS011;9729;52.296;13.260;2022-11-15T09:39:04;37.47;;;20.00;;
19193;SDS011;9729;52.296;13.260;2022-11-15T09:41:48;35.00;;;20.33;;
19193;SDS011;9729;52.296;13.260;2022-11-15T09:44:26;35.40;;;20.40;;
19193;SDS011;9729;52.296;13.260;2022-11-15T09:47:03;30.23;;;19.17;;
19193;SDS011;9729;52.296;13.260;2022-11-15T09:49:34;30.37;;;18.80;;
19193;SDS011;9729;52.296;13.260;2022-11-15T09:52:01;27.80;;;17.27;;
19193;SDS011;9729;52.296;13.260;2022-11-15T09:54:29;30.90;;;17.60;;
19193;SDS011;9729;52.296;13.260;2022-11-15T09:57:02;29.77;;;17.63;;
19193;SDS011;9729;52.296;13.260;2022-11-15T09:59:37;27.80;;;16.53;;
19193;SDS011;9729;52.296;13.260;2022-11-15T10:02:11;27.73;;;16.63;;
19193;SDS011;9729;52.296;13.260;2022-11-15T10:04:45;27.27;;;15.80;;
19193;SDS011;9729;52.296;13.260;2022-11-15T10:07:13;30.93;;;16.37;;
19193;SDS011;9729;52.296;13.260;2022-11-15T10:09:42;32.43;;;16.53;;
19193;SDS011;9729;52.296;13.260;2022-11-15T10:12:11;28.20;;;17.13;;
19193;SDS011;9729;52.296;13.260;2022-11-15T10:14:40;30.83;;;17.03;;
19193;SDS011;9729;52.296;13.260;2022-11-15T10:17:23;27.07;;;16.20;;
19193;SDS011;9729;52.296;13.260;2022-11-15T10:20:05;28.37;;;14.80;;
19193;SDS011;9729;52.296;13.260;2022-11-15T10:22:38;24.77;;;14.17;;
19193;SDS011;9729;52.296;13.260;2022-11-15T10:25:17;31.17;;;17.00;;
19193;SDS011;9729;52.296;13.260;2022-11-15T10:27:47;23.87;;;14.83;;
19193;SDS011;9729;52.296;13.260;2022-11-15T10:30:20;19.73;;;12.77;;
19193;SDS011;9729;52.296;13.260;2022-11-15T10:32:47;20.83;;;13.93;;
19193;SDS011;9729;52.296;13.260;2022-11-15T10:35:18;24.83;;;15.10;;
19193;SDS011;9729;52.296;13.260;2022-11-15T10:37:47;21.53;;;14.03;;
19193;SDS011;9729;52.296;13.260;2022-11-15T10:40:17;22.53;;;14.10;;
19193;SDS011;9729;52.296;13.260;2022-11-15T10:42:46;23.40;;;14.13;;
19193;SDS011;9729;52.296;13.260;2022-11-15T10:45:25;24.00;;;13.70;;
19193;SDS011;9729;52.296;13.260;2022-11-15T10:47:53;22.13;;;13.13;;
19193;SDS011;9729;52.296;13.260;2022-11-15T10:50:27;21.20;;;12.77;;
19193;SDS011;9729;52.296;13.260;2022-11-15T10:52:54;23.20;;;12.97;;
19193;SDS011;9729;52.296;13.260;2022-11-15T10:55:22;20.40;;;12.27;;
19193;SDS011;9729;52.296;13.260;2022-11-15T10:57:52;31.37;;;13.90;;
19193;SDS011;9729;52.296;13.260;2022-11-15T11:00:29;20.53;;;12.53;;
19193;SDS011;9729;52.296;13.260;2022-11-15T11:02:57;18.97;;;12.33;;
19193;SDS011;9729;52.296;13.260;2022-11-15T11:05:28;20.10;;;12.83;;
19193;SDS011;9729;52.296;13.260;2022-11-15T11:07:59;21.23;;;13.70;;
19193;SDS011;9729;52.296;13.260;2022-11-15T11:10:27;20.17;;;12.67;;
19193;SDS011;9729;52.296;13.260;2022-11-15T11:12:54;18.30;;;11.53;;
19193;SDS011;9729;52.296;13.260;2022-11-15T11:15:20;22.43;;;11.73;;
19193;SDS011;9729;52.296;13.260;2022-11-15T11:18:02;16.80;;;9.77;;
19193;SDS011;9729;52.296;13.260;2022-11-15T11:20:36;18.03;;;10.63;;
19193;SDS011;9729;52.296;13.260;2022-11-15T11:23:09;17.27;;;9.70;;
19193;SDS011;9729;52.296;13.260;2022-11-15T11:25:47;11.40;;;7.80;;
19193;SDS011;9729;52.296;13.260;2022-11-15T11:28:26;20.10;;;9.23;;
19193;SDS011;9729;52.296;13.260;2022-11-15T11:31:13;14.07;;;8.23;;
19193;SDS011;9729;52.296;13.260;2022-11-15T11:33:48;15.03;;;8.97;;
19193;SDS011;9729;52.296;13.260;2022-11-15T11:36:20;15.77;;;8.63;;
19193;SDS011;9729;52.296;13.260;2022-11-15T11:38:51;13.10;;;8.53;;
19193;SDS011;9729;52.296;13.260;2022-11-15T11:41:26;13.57;;;8.60;;
19193;SDS011;9729;52.296;13.260;2022-11-15T11:44:07;18.90;;;8.73;;
19193;SDS011;9729;52.296;13.260;2022-11-15T11:46:48;16.83;;;9.23;;
19193;SDS011;9729;52.296;13.260;2022-11-15T11:49:18;13.37;;;7.77;;
19193;SDS011;9729;52.296;13.260;2022-11-15T11:51:48;13.40;;;8.23;;
19193;SDS011;9729;52.296;13.260;2022-11-15T11:54:19;15.40;;;9.13;;
19193;SDS011;9729;52.296;13.260;2022-11-15T11:56:48;15.53;;;8.23;;
19193;SDS011;9729;52.296;13.260;2022-11-15T11:59:19;13.67;;;8.47;;
19193;SDS011;9729;52.296;13.260;2022-11-15T12:01:47;14.57;;;7.57;;
19193;SDS011;9729;52.296;13.260;2022-11-15T12:04:15;14.10;;;7.80;;
19193;SDS011;9729;52.296;13.260;2022-11-15T12:06:45;13.20;;;7.43;;
19193;SDS011;9729;52.296;13.260;2022-11-15T12:09:14;13.53;;;8.07;;
19193;SDS011;9729;52.296;13.260;2022-11-15T12:11:48;17.10;;;9.10;;
19193;SDS011;9729;52.296;13.260;2022-11-15T12:14:21;12.87;;;7.57;;
19193;SDS011;9729;52.296;13.260;2022-11-15T12:16:52;12.13;;;8.80;;
19193;SDS011;9729;52.296;13.260;2022-11-15T12:19:20;12.73;;;7.20;;
19193;SDS011;9729;52.296;13.260;2022-11-15T12:21:46;9.53;;;6.87;;
19193;SDS011;9729;52.296;13.260;2022-11-15T12:24:18;12.00;;;7.23;;
19193;SDS011;9729;52.296;13.260;2022-11-15T12:26:49;13.97;;;7.67;;
19193;SDS011;9729;52.296;13.260;2022-11-15T12:29:19;12.93;;;7.27;;
19193;SDS011;9729;52.296;13.260;2022-11-15T12:31:49;12.97;;;7.20;;
19193;SDS011;9729;52.296;13.260;2022-11-15T12:34:34;10.67;;;7.70;;
19193;SDS011;9729;52.296;13.260;2022-11-15T12:40:17;10.37;;;7.10;;
19193;SDS011;9729;52.296;13.260;2022-11-15T12:42:59;14.47;;;7.07;;
19193;SDS011;9729;52.296;13.260;2022-11-15T12:45:27;11.87;;;6.90;;
19193;SDS011;9729;52.296;13.260;2022-11-15T12:47:55;12.17;;;6.67;;
19193;SDS011;9729;52.296;13.260;2022-11-15T12:50:55;10.33;;;7.00;;
19193;SDS011;9729;52.296;13.260;2022-11-15T12:53:26;12.23;;;7.17;;
19193;SDS011;9729;52.296;13.260;2022-11-15T12:56:08;44.37;;;23.00;;
19193;SDS011;9729;52.296;13.260;2022-11-15T12:58:42;137.23;;;73.03;;
19193;SDS011;9729;52.296;13.260;2022-11-15T13:01:12;234.73;;;112.43;;
19193;SDS011;9729;52.296;13.260;2022-11-15T13:04:21;57.20;;;29.83;;
19193;SDS011;9729;52.296;13.260;2022-11-15T13:06:52;32.77;;;14.77;;
19193;SDS011;9729;52.296;13.260;2022-11-15T13:18:25;19.13;;;9.53;;
19193;SDS011;9729;52.296;13.260;2022-11-15T13:20:54;17.57;;;9.70;;
19193;SDS011;9729;52.296;13.260;2022-11-15T13:23:23;16.60;;;8.77;;
19193;SDS011;9729;52.296;13.260;2022-11-15T13:25:58;15.83;;;8.53;;
19193;SDS011;9729;52.296;13.260;2022-11-15T13:28:31;14.07;;;7.97;;
19193;SDS011;9729;52.296;13.260;2022-11-15T13:31:00;19.77;;;10.17;;
19193;SDS011;9729;52.296;13.260;2022-11-15T13:33:30;20.00;;;9.83;;
19193;SDS011;9729;52.296;13.260;2022-11-15T13:35:59;14.63;;;8.27;;
19193;SDS011;9729;52.296;13.260;2022-11-15T13:38:28;13.13;;;8.27;;
19193;SDS011;9729;52.296;13.260;2022-11-15T13:40:56;15.73;;;8.57;;
19193;SDS011;9729;52.296;13.260;2022-11-15T13:43:26;41.00;;;13.97;;
19193;SDS011;9729;52.296;13.260;2022-11-15T13:46:11;24.07;;;9.73;;
19193;SDS011;9729;52.296;13.260;2022-11-15T13:48:39;16.87;;;9.20;;
19193;SDS011;9729;52.296;13.260;2022-11-15T13:51:06;15.87;;;7.87;;
19193;SDS011;9729;52.296;13.260;2022-11-15T13:53:38;15.73;;;7.70;;
19193;SDS011;9729;52.296;13.260;2022-11-15T13:56:06;13.60;;;7.20;;
19193;SDS011;9729;52.296;13.260;2022-11-15T13:58:33;18.10;;;8.17;;
19193;SDS011;9729;52.296;13.260;2022-11-15T14:01:00;19.83;;;10.33;;
19193;SDS011;9729;52.296;13.260;2022-11-15T14:03:28;18.80;;;9.10;;
19193;SDS011;9729;52.296;13.260;2022-11-15T14:06:02;14.63;;;7.27;;
19193;SDS011;9729;52.296;13.260;2022-11-15T14:08:32;10.83;;;6.77;;
19193;SDS011;9729;52.296;13.260;2022-11-15T14:11:09;15.90;;;7.10;;
19193;SDS011;9729;52.296;13.260;2022-11-15T14:13:39;13.80;;;7.30;;
19193;SDS011;9729;52.296;13.260;2022-11-15T14:16:12;11.10;;;7.13;;
19193;SDS011;9729;52.296;13.260;2022-11-15T14:18:45;14.73;;;8.10;;
19193;SDS011;9729;52.296;13.260;2022-11-15T14:21:13;14.07;;;8.00;;
19193;SDS011;9729;52.296;13.260;2022-11-15T14:23:39;15.53;;;9.07;;
19193;SDS011;9729;52.296;13.260;2022-11-15T14:26:11;15.00;;;8.07;;
19193;SDS011;9729;52.296;13.260;2022-11-15T14:28:52;16.10;;;8.77;;
19193;SDS011;9729;52.296;13.260;2022-11-15T14:31:19;15.13;;;8.53;;
19193;SDS011;9729;52.296;13.260;2022-11-15T14:33:45;18.23;;;9.40;;
19193;SDS011;9729;52.296;13.260;2022-11-15T14:36:13;14.80;;;9.17;;
19193;SDS011;9729;52.296;13.260;2022-11-15T14:38:43;20.23;;;10.80;;
19193;SDS011;9729;52.296;13.260;2022-11-15T14:41:13;16.90;;;10.70;;
19193;SDS011;9729;52.296;13.260;2022-11-15T14:43:44;22.67;;;10.43;;
19193;SDS011;9729;52.296;13.260;2022-11-15T14:46:10;15.43;;;10.10;;
19193;SDS011;9729;52.296;13.260;2022-11-15T14:48:36;18.97;;;11.27;;
19193;SDS011;9729;52.296;13.260;2022-11-15T14:51:03;28.20;;;12.10;;
19193;SDS011;9729;52.296;13.260;2022-11-15T14:53:36;40.47;;;15.23;;